Time;durP1;ratioP1;P1;durP2;ratioP2;P2;SDS_P1;SDS_P2;PMS_P1;PMS_P2;Temp;Humidity;BMP_temperature;BMP_pressure;BME280_temperature;BME280_humidity;BME280_pressure;Samples;Min_cycle;Max_cycle;Signal;HPM_P1;HPM_P2
2023/03/23 00:01:36;;;;;;;17.60;11.50;;;;;;;10.13;67.34;99884.70;105628;1257;69477;-61
2023/03/23 00:04:36;;;;;;;17.20;10.80;;;;;;;9.96;67.77;99882.98;105582;1251;74221;-59
2023/03/23 00:07:35;;;;;;;19.40;11.30;;;;;;;9.85;68.48;99877.19;105631;1256;83145;-62
2023/03/23 00:10:39;;;;;;;17.40;9.40;;;;;;;9.79;68.95;99878.48;105617;1251;73677;-58
2023/03/23 00:13:39;;;;;;;13.50;7.40;;;;;;;9.78;69.27;99873.43;105582;1251;69081;-60
2023/03/23 00:17:10;;;;;;;15.40;8.20;;;;;;;9.85;69.59;99871.24;105621;1255;69132;-60
2023/03/23 00:20:12;;;;;;;12.90;7.00;;;;;;;9.90;69.89;99875.39;105589;1256;74002;-60
2023/03/23 00:23:18;;;;;;;12.40;6.70;;;;;;;9.94;70.04;99880.09;105544;1253;84077;-60
2023/03/23 00:26:34;;;;;;;;;;;;;;;;;;;;;
2023/03/23 00:29:40;;;;;;;13.00;7.20;;;;;;;10.16;70.00;99880.20;105431;1255;69226;-60
2023/03/23 00:32:34;;;;;;;12.10;7.10;;;;;;;10.27;69.94;99875.01;105066;1262;69273;-60
2023/03/23 00:35:41;;;;;;;12.00;7.50;;;;;;;10.35;69.82;99870.67;105078;1257;74063;-60
2023/03/23 00:38:54;;;;;;;12.60;7.60;;;;;;;10.39;69.68;99869.27;105100;1258;82826;-58
2023/03/23 00:42:00;;;;;;;11.50;6.60;;;;;;;10.43;69.34;99867.36;105088;1260;73771;-59
2023/03/23 00:45:06;;;;;;;15.20;8.50;;;;;;;10.43;69.44;99865.05;105077;1262;69310;-61
2023/03/23 00:48:04;;;;;;;16.60;8.10;;;;;;;10.44;69.27;99859.96;105090;1257;69173;-60
2023/03/23 00:51:02;;;;;;;13.30;7.20;;;;;;;10.46;69.17;99858.27;104961;1264;74526;-60
2023/03/23 00:54:21;;;;;;;13.00;7.10;;;;;;;10.50;69.11;99853.21;105011;1263;83316;-59
2023/03/23 00:57:23;;;;;;;13.30;7.20;;;;;;;10.53;69.12;99851.19;104919;1260;74758;-59
2023/03/23 01:00:30;;;;;;;13.70;7.10;;;;;;;10.54;69.10;99847.30;105083;1257;69245;-62
2023/03/23 01:03:33;;;;;;;12.90;7.20;;;;;;;10.54;69.29;99844.16;105118;1257;69258;-61
2023/03/23 01:06:44;;;;;;;;;;;;;;;;;;;;;
2023/03/23 01:09:35;;;;;;;13.50;7.60;;;;;;;10.54;69.11;99838.55;105243;1256;83545;-59
2023/03/23 01:12:53;;;;;;;13.70;7.80;;;;;;;10.53;69.14;99838.43;105534;1252;73678;-60
2023/03/23 01:15:56;;;;;;;10.40;7.40;;;;;;;10.51;68.97;99831.70;105493;1253;69276;-59
2023/03/23 01:19:00;;;;;;;11.10;7.50;;;;;;;10.50;69.10;99826.66;105572;1253;69412;-58
2023/03/23 01:22:10;;;;;;;14.30;6.80;;;;;;;10.50;69.18;99825.80;105547;1253;73230;-59
2023/03/23 01:25:28;;;;;;;13.90;7.30;;;;;;;10.51;69.16;99818.95;105636;1253;83376;-59
2023/03/23 01:28:29;;;;;;;13.20;6.60;;;;;;;10.53;69.30;99816.77;105549;1253;73712;-60
2023/03/23 01:31:37;;;;;;;9.50;6.10;;;;;;;10.58;69.24;99810.21;105601;1253;69190;-61
2023/03/23 01:34:36;;;;;;;15.80;7.00;;;;;;;10.63;69.18;99809.30;105546;1254;69076;-63
2023/03/23 01:38:02;;;;;;;;;;;;;;;;;;;;;
2023/03/23 01:40:53;;;;;;;10.80;6.50;;;;;;;10.70;69.30;99813.66;105659;1254;82528;-59
2023/03/23 01:44:16;;;;;;;13.20;7.20;;;;;;;10.74;69.24;99812.10;105250;1253;73571;-59
2023/03/23 01:47:17;;;;;;;11.20;6.70;;;;;;;10.78;69.15;99814.20;105113;1264;69216;-59
2023/03/23 01:50:29;;;;;;;13.00;7.20;;;;;;;10.79;69.04;99812.23;105443;1258;69289;-59
2023/03/23 01:53:29;;;;;;;11.90;6.80;;;;;;;10.79;69.01;99809.41;105425;1257;73142;-60
2023/03/23 01:56:20;;;;;;;11.60;6.90;;;;;;;10.80;68.95;99806.05;105479;1256;82938;-61
2023/03/23 01:59:08;;;;;;;10.70;6.90;;;;;;;10.81;68.97;99801.29;105441;1253;73765;-60
2023/03/23 02:02:27;;;;;;;10.40;6.30;;;;;;;10.82;68.70;99802.31;105507;1253;69112;-59
2023/03/23 02:05:58;;;;;;;11.30;6.80;;;;;;;10.85;68.72;99794.81;105444;1256;69250;-59
2023/03/23 02:09:16;;;;;;;9.90;5.30;;;;;;;10.88;68.52;99799.90;105586;1255;73196;-61
2023/03/23 02:12:11;;;;;;;11.20;6.40;;;;;;;10.89;68.47;99797.56;105417;1255;83291;-59
2023/03/23 02:15:20;;;;;;;10.80;5.80;;;;;;;10.89;68.30;99794.95;105546;1253;73078;-64
2023/03/23 02:18:21;;;;;;;10.00;5.70;;;;;;;10.89;68.35;99791.28;105429;1254;69200;-59
2023/03/23 02:21:58;;;;;;;10.40;5.50;;;;;;;10.89;68.20;99789.52;104997;1260;69077;-62
2023/03/23 02:25:14;;;;;;;9.30;5.20;;;;;;;10.92;68.11;99791.65;104342;1271;73951;-58
2023/03/23 02:29:07;;;;;;;8.70;5.00;;;;;;;10.92;68.13;99787.63;103678;1281;83270;-60
2023/03/23 02:32:05;;;;;;;11.20;5.80;;;;;;;10.95;68.09;99787.67;102447;1289;74790;-60
2023/03/23 02:36:02;;;;;;;11.50;6.20;;;;;;;10.96;68.20;99782.40;102514;1290;69264;-61
2023/03/23 02:39:58;;;;;;;7.50;4.70;;;;;;;10.99;68.02;99784.86;102124;1295;69209;-59
2023/03/23 02:42:54;;;;;;;;;;;;;;;;;;;;;
2023/03/23 02:46:01;;;;;;;8.90;5.40;;;;;;;11.00;68.05;99783.24;101851;1302;84119;-58
2023/03/23 02:49:00;;;;;;;;;;;;;;;;;;;;;
2023/03/23 02:55:30;;;;;;;9.60;6.00;;;;;;;10.92;67.86;99770.17;101826;1304;69435;-58
2023/03/23 02:58:39;;;;;;;;;;;;;;;;;;;;;
2023/03/23 03:01:53;;;;;;;48.10;17.00;;;;;;;10.82;67.94;99758.25;102796;1283;82443;-62
2023/03/23 03:04:59;;;;;;;14.40;6.80;;;;;;;10.76;68.21;99754.19;103003;1284;73019;-65
2023/03/23 03:08:31;;;;;;;8.40;5.40;;;;;;;10.62;68.19;99758.33;103920;1276;69293;-59
2023/03/23 03:11:30;;;;;;;8.80;5.00;;;;;;;10.51;68.31;99762.71;103665;1279;69371;-59
2023/03/23 03:14:41;;;;;;;8.10;4.50;;;;;;;10.39;68.49;99758.00;102786;1283;73572;-61
2023/03/23 03:18:27;;;;;;;;;;;;;;;;;;;;;
2023/03/23 03:21:56;;;;;;;10.10;5.70;;;;;;;10.27;69.13;99759.96;103150;1286;74080;-61
2023/03/23 03:25:47;;;;;;;;;;;;;;;;;;;;;
2023/03/23 03:29:28;;;;;;;9.70;5.50;;;;;;;10.21;69.51;99753.38;103030;1283;70740;-61
2023/03/23 03:32:38;;;;;;;10.40;5.80;;;;;;;10.19;69.58;99753.83;102890;1283;74692;-61
2023/03/23 03:36:13;;;;;;;;;;;;;;;;;;;;;
2023/03/23 03:39:20;;;;;;;11.40;5.60;;;;;;;10.17;69.89;99756.20;98821;1289;5542256;-59
2023/03/23 03:42:33;;;;;;;5.90;3.80;;;;;;;10.17;70.06;99753.05;103274;1277;69309;-62
2023/03/23 03:45:37;;;;;;;;;;;;;;;;;;;;;
2023/03/23 03:48:58;;;;;;;;;;;;;;;;;;;;;
2023/03/23 03:52:01;;;;;;;7.90;4.10;;;;;;;10.34;70.16;99753.22;104247;1267;83958;-59
2023/03/23 03:55:21;;;;;;;7.90;4.30;;;;;;;10.37;70.35;99758.64;104712;1261;72462;-59
2023/03/23 03:58:35;;;;;;;10.50;4.90;;;;;;;10.40;70.30;99754.48;105303;1252;69151;-59
2023/03/23 04:02:19;;;;;;;;;;;;;;;;;;;;;
2023/03/23 04:05:32;;;;;;;;;;;;;;;;;;;;;
2023/03/23 04:08:40;;;;;;;10.10;4.70;;;;;;;10.44;70.28;99753.73;105297;1258;84075;-59
2023/03/23 04:11:44;;;;;;;7.70;4.00;;;;;;;10.43;70.29;99753.77;105506;1255;72822;-60
2023/03/23 04:15:05;;;;;;;7.00;4.30;;;;;;;10.43;70.28;99747.52;105285;1256;69293;-59
2023/03/23 04:18:20;;;;;;;7.60;4.30;;;;;;;10.42;70.24;99748.77;105533;1256;69167;-60
2023/03/23 04:21:29;;;;;;;8.90;4.30;;;;;;;10.43;70.27;99743.31;105540;1255;74561;-61
2023/03/23 04:24:28;;;;;;;5.80;3.10;;;;;;;10.47;70.08;99738.95;105562;1255;83099;-60
2023/03/23 04:27:23;;;;;;;5.90;3.40;;;;;;;10.50;70.19;99739.15;105554;1255;72941;-58
2023/03/23 04:30:33;;;;;;;7.40;3.50;;;;;;;10.53;70.14;99741.30;105518;1255;69863;-59
2023/03/23 04:33:52;;;;;;;7.00;3.70;;;;;;;10.53;70.26;99733.98;105591;1256;69185;-59
2023/03/23 04:36:44;;;;;;;5.00;3.20;;;;;;;10.55;70.27;99733.52;105543;1253;73131;-58
2023/03/23 04:39:45;;;;;;;7.30;3.70;;;;;;;10.56;70.28;99731.73;105512;1253;82573;-58
2023/03/23 04:42:41;;;;;;;5.40;3.10;;;;;;;10.55;70.19;99731.05;105453;1256;72823;-59
2023/03/23 04:46:09;;;;;;;5.80;3.50;;;;;;;10.55;70.23;99727.23;105503;1253;69129;-63
2023/03/23 04:49:03;;;;;;;7.50;3.70;;;;;;;10.54;70.20;99727.95;105452;1253;69094;-59
2023/03/23 04:52:28;;;;;;;6.70;3.50;;;;;;;10.54;70.13;99720.48;105501;1253;73005;-58
2023/03/23 04:55:40;;;;;;;6.50;3.90;;;;;;;10.54;70.17;99721.84;105486;1255;83261;-57
2023/03/23 04:58:33;;;;;;;5.80;3.10;;;;;;;10.55;69.94;99718.82;105560;1253;72699;-54
2023/03/23 05:02:03;;;;;;;6.80;3.50;;;;;;;10.57;69.95;99718.75;105075;1257;69325;-58
2023/03/23 05:05:01;;;;;;;4.50;3.00;;;;;;;10.61;69.82;99720.29;105056;1260;69247;-59
2023/03/23 05:07:57;;;;;;;3.70;2.40;;;;;;;10.67;69.80;99711.10;105053;1262;73135;-60
2023/03/23 05:11:11;;;;;;;;;;;;;;;;;;;;;
2023/03/23 05:14:17;;;;;;;4.80;2.90;;;;;;;10.77;69.67;99712.35;105080;1262;73240;-59
2023/03/23 05:17:16;;;;;;;4.50;2.50;;;;;;;10.81;69.69;99709.88;105057;1260;69109;-58
2023/03/23 05:20:31;;;;;;;;;;;;;;;;;;;;;
2023/03/23 05:23:47;;;;;;;5.70;2.60;;;;;;;10.91;69.40;99708.84;105159;1263;74374;-60
2023/03/23 05:26:41;;;;;;;5.20;2.80;;;;;;;10.96;69.56;99716.34;105087;1263;83434;-59
2023/03/23 05:29:40;;;;;;;;;;;;;;;;;;;;;
2023/03/23 05:32:41;;;;;;;;;;;;;;;;;;;;;
2023/03/23 05:35:48;;;;;;;6.80;2.90;;;;;;;11.00;69.27;99722.05;105158;1262;69157;-59
2023/03/23 05:38:59;;;;;;;3.70;2.70;;;;;;;11.01;69.18;99722.02;105280;1255;73206;-62
2023/03/23 05:42:11;;;;;;;4.50;2.70;;;;;;;11.02;69.17;99723.20;105540;1255;83393;-60
2023/03/23 05:45:32;;;;;;;7.60;4.10;;;;;;;11.04;69.23;99716.63;105462;1253;73923;-57
2023/03/23 05:48:35;;;;;;;5.10;2.80;;;;;;;11.05;69.28;99717.79;105244;1253;69191;-58
2023/03/23 05:51:31;;;;;;;5.20;2.50;;;;;;;11.06;69.04;99714.27;105511;1255;69238;-60
2023/03/23 05:54:34;;;;;;;4.90;2.70;;;;;;;11.09;69.00;99714.09;105487;1253;73255;-59
2023/03/23 05:57:28;;;;;;;3.40;2.30;;;;;;;11.12;68.99;99711.00;105326;1258;84602;-57
2023/03/23 06:00:23;;;;;;;3.50;2.00;;;;;;;11.13;68.85;99706.90;105607;1256;73852;-55
2023/03/23 06:03:03;;;;;;;4.10;2.60;;;;;;;11.14;68.99;99706.65;105629;1252;69081;-52
2023/03/23 06:05:52;;;;;;;5.10;2.70;;;;;;;11.18;69.21;99701.77;105658;1251;69886;-53
2023/03/23 06:08:53;;;;;;;9.20;3.00;;;;;;;11.22;69.16;99701.40;105633;1256;73158;-55
2023/03/23 06:11:30;;;;;;;8.40;3.10;;;;;;;11.29;69.17;99694.70;105566;1253;83932;-57
2023/03/23 06:14:25;;;;;;;;;;;;;;;;;;;;;
2023/03/23 06:17:14;;;;;;;4.20;2.90;;;;;;;11.47;68.98;99691.86;105645;1251;69068;-55
2023/03/23 06:19:50;;;;;;;6.00;3.20;;;;;;;11.57;68.89;99690.98;105534;1257;69183;-56
2023/03/23 06:22:37;;;;;;;5.00;3.30;;;;;;;11.67;68.78;99694.85;105674;1256;73058;-55
2023/03/23 06:25:22;;;;;;;7.40;3.40;;;;;;;11.75;68.89;99685.31;105544;1253;83650;-57
2023/03/23 06:27:53;;;;;;;7.90;3.20;;;;;;;11.84;68.78;99686.58;105444;1259;73715;-56
2023/03/23 06:30:30;;;;;;;5.20;3.00;;;;;;;11.91;68.65;99686.59;105469;1253;69247;-59
2023/03/23 06:33:11;;;;;;;6.50;3.70;;;;;;;11.95;68.59;99693.19;105614;1256;69229;-57
2023/03/23 06:36:01;;;;;;;7.30;3.20;;;;;;;11.99;68.23;99695.98;105682;1255;72842;-57
2023/03/23 06:38:49;;;;;;;5.90;3.70;;;;;;;12.01;68.41;99693.94;105721;1256;82499;-57
2023/03/23 06:41:41;;;;;;;6.40;3.00;;;;;;;12.02;68.21;99697.34;105687;1253;72736;-58
2023/03/23 06:44:20;;;;;;;8.50;4.00;;;;;;;12.08;68.25;99691.84;105828;1254;69157;-57
2023/03/23 06:46:58;;;;;;;6.70;3.60;;;;;;;12.08;68.41;99695.48;105951;1251;69096;-56
2023/03/23 06:49:47;;;;;;;7.60;4.10;;;;;;;12.09;68.44;99691.05;105673;1256;73139;-58
2023/03/23 06:52:35;;;;;;;10.50;4.50;;;;;;;12.10;68.72;99689.08;105694;1251;82861;-57
2023/03/23 06:55:12;;;;;;;;;;;;;;;12.14;68.59;99684.33;105560;1259;72487;-56
2023/03/23 06:57:48;;;;;;;8.90;3.40;;;;;;;12.21;68.92;99688.45;105924;1256;69127;-58
2023/03/23 07:00:21;;;;;;;7.70;4.00;;;;;;;12.32;69.03;99691.91;105534;1252;69229;-58
2023/03/23 07:03:31;;;;;;;7.10;3.40;;;;;;;12.43;68.89;99691.10;105831;1255;74133;-58
2023/03/23 07:06:07;;;;;;;4.40;3.20;;;;;;;12.56;68.84;99697.21;105617;1256;82549;-59
2023/03/23 07:08:44;;;;;;;6.70;3.70;;;;;;;12.65;68.85;99695.10;105602;1254;73481;-58
2023/03/23 07:11:29;;;;;;;6.70;2.80;;;;;;;12.72;68.43;99689.96;105644;1256;69067;-58
2023/03/23 07:14:04;;;;;;;7.30;2.90;;;;;;;12.80;68.43;99687.95;105601;1253;69192;-58
2023/03/23 07:16:35;;;;;;;6.90;3.00;;;;;;;12.89;68.19;99688.13;105849;1255;74508;-58
2023/03/23 07:19:15;;;;;;;7.00;2.90;;;;;;;12.95;67.95;99686.38;105599;1255;83921;-59
2023/03/23 07:21:48;;;;;;;7.80;3.20;;;;;;;13.03;68.02;99691.56;105634;1259;73491;-59
2023/03/23 07:24:22;;;;;;;9.20;3.20;;;;;;;13.14;67.93;99687.00;105706;1252;69211;-59
2023/03/23 07:27:11;;;;;;;4.80;3.00;;;;;;;13.28;67.88;99674.66;105551;1254;69134;-59
2023/03/23 07:29:44;;;;;;;5.90;3.10;;;;;;;13.43;67.56;99675.20;105574;1253;74122;-59
2023/03/23 07:32:20;;;;;;;6.00;2.70;;;;;;;13.60;67.65;99674.30;105668;1253;83348;-59
2023/03/23 07:34:56;;;;;;;5.00;2.90;;;;;;;13.80;67.20;99669.04;105578;1259;73707;-59
2023/03/23 07:37:38;;;;;;;4.90;2.80;;;;;;;13.98;66.90;99665.98;105579;1253;69171;-59
2023/03/23 07:40:15;;;;;;;4.10;2.50;;;;;;;14.18;66.70;99666.30;105645;1255;69183;-59
2023/03/23 07:42:52;;;;;;;5.70;3.00;;;;;;;14.41;66.54;99667.10;105490;1257;73046;-59
2023/03/23 07:45:30;;;;;;;3.90;2.40;;;;;;;14.62;65.84;99658.89;105521;1255;83969;-59
2023/03/23 07:48:01;;;;;;;4.00;2.70;;;;;;;14.75;65.25;99664.59;105588;1255;72683;-59
2023/03/23 07:50:32;;;;;;;5.00;3.00;;;;;;;14.80;64.80;99660.70;105624;1254;69212;-58
2023/03/23 07:53:07;;;;;;;3.70;2.90;;;;;;;14.84;64.61;99659.61;105772;1256;69208;-59
2023/03/23 07:55:40;;;;;;;4.50;3.20;;;;;;;14.89;64.59;99664.36;105722;1256;73107;-59
2023/03/23 07:58:19;;;;;;;5.40;2.70;;;;;;;15.02;64.27;99668.77;105648;1259;83423;-59
2023/03/23 08:00:52;;;;;;;4.60;2.90;;;;;;;15.18;64.46;99669.96;105463;1256;73781;-59
2023/03/23 08:03:20;;;;;;;3.50;2.60;;;;;;;15.32;64.12;99675.89;105633;1252;69171;-58
2023/03/23 08:06:08;;;;;;;3.70;2.90;;;;;;;15.42;63.76;99678.54;105696;1253;69059;-59
2023/03/23 08:08:59;;;;;;;5.60;3.10;;;;;;;15.48;63.53;99683.23;105693;1256;73601;-59
2023/03/23 08:11:48;;;;;;;6.00;3.40;;;;;;;15.48;63.21;99679.33;105688;1256;83029;-59
2023/03/23 08:14:34;;;;;;;6.50;3.20;;;;;;;15.48;62.98;99686.56;105692;1254;73970;-59
2023/03/23 08:17:40;;;;;;;4.80;3.20;;;;;;;15.46;62.56;99689.52;105592;1253;69322;-59
2023/03/23 08:20:25;;;;;;;4.90;3.00;;;;;;;15.43;62.49;99686.58;105679;1256;69085;-59
2023/03/23 08:22:56;;;;;;;5.10;3.00;;;;;;;15.43;62.33;99679.38;105754;1256;73711;-58
2023/03/23 08:25:43;;;;;;;7.10;3.20;;;;;;;15.45;62.27;99681.88;106192;1255;83314;-58
2023/03/23 08:28:31;;;;;;;5.90;3.10;;;;;;;15.47;62.34;99683.84;105564;1256;73720;-57
2023/03/23 08:31:28;;;;;;;5.20;3.00;;;;;;;15.53;62.33;99687.65;105216;1253;69183;-57
2023/03/23 08:34:04;;;;;;;4.90;2.60;;;;;;;15.61;62.35;99687.65;105521;1256;69221;-58
2023/03/23 08:36:38;;;;;;;4.10;2.60;;;;;;;15.73;62.14;99681.03;105674;1254;74217;-57
2023/03/23 08:39:22;;;;;;;3.50;2.00;;;;;;;15.83;62.05;99672.76;105637;1254;82128;-58
2023/03/23 08:42:07;;;;;;;6.00;2.10;;;;;;;15.92;61.52;99672.23;105710;1253;73762;-58
2023/03/23 08:45:07;;;;;;;3.40;1.90;;;;;;;16.09;61.40;99673.34;105572;1254;69182;-58
2023/03/23 08:47:50;;;;;;;4.20;2.70;;;;;;;16.25;61.07;99675.87;105648;1256;69106;-57
2023/03/23 08:50:38;;;;;;;6.60;2.80;;;;;;;16.38;60.64;99678.70;105527;1253;74244;-57
2023/03/23 08:53:41;;;;;;;5.40;2.10;;;;;;;16.45;60.19;99677.26;105258;1257;84306;-60
2023/03/23 08:56:27;;;;;;;3.60;1.80;;;;;;;16.56;59.59;99677.01;105510;1256;71986;-62
2023/03/23 08:59:18;;;;;;;3.40;1.50;;;;;;;16.68;59.46;99683.39;105693;1256;69089;-62
2023/03/23 09:01:58;;;;;;;2.30;1.20;;;;;;;16.78;58.30;99687.11;105579;1255;69092;-62
2023/03/23 09:04:44;;;;;;;4.60;1.70;;;;;;;16.86;57.77;99685.09;105560;1255;74001;-61
2023/03/23 09:07:52;;;;;;;3.70;1.40;;;;;;;16.97;57.46;99682.65;105415;1258;83443;-59
2023/03/23 09:10:24;;;;;;;1.80;1.30;;;;;;;17.04;56.55;99685.48;105508;1255;73755;-60
2023/03/23 09:12:52;;;;;;;2.50;1.20;;;;;;;17.04;55.35;99693.02;105508;1253;69143;-59
2023/03/23 09:15:20;;;;;;;2.00;1.10;;;;;;;17.00;54.19;99687.16;105541;1257;69121;-60
2023/03/23 09:17:50;;;;;;;2.50;1.10;;;;;;;17.03;54.46;99684.13;105494;1256;73793;-60
2023/03/23 09:20:23;;;;;;;2.60;1.30;;;;;;;17.05;53.35;99693.84;105525;1254;84166;-63
2023/03/23 09:22:53;;;;;;;2.70;1.40;;;;;;;17.04;53.99;99693.91;105570;1251;73353;-59
2023/03/23 09:25:25;;;;;;;3.40;1.20;;;;;;;17.06;54.04;99684.23;105247;1254;69210;-60
2023/03/23 09:27:56;;;;;;;2.60;1.30;;;;;;;17.09;53.45;99690.38;105407;1256;69267;-60
2023/03/23 09:30:26;;;;;;;3.30;1.20;;;;;;;17.13;52.73;99703.33;105462;1258;73073;-64
2023/03/23 09:32:54;;;;;;;2.10;1.40;;;;;;;17.17;52.14;99703.56;105413;1259;83791;-63
2023/03/23 09:35:22;;;;;;;5.00;1.30;;;;;;;17.31;52.75;99693.14;105479;1259;73468;-59
2023/03/23 09:37:51;;;;;;;2.20;1.10;;;;;;;17.56;53.01;99693.33;105437;1254;69092;-69
2023/03/23 09:40:23;;;;;;;8.20;1.30;;;;;;;17.77;52.59;99694.34;105400;1256;69223;-70
2023/03/23 09:43:14;;;;;;;3.20;1.30;;;;;;;17.80;51.58;99705.80;105458;1256;74196;-71
2023/03/23 09:46:08;;;;;;;4.40;1.30;;;;;;;17.79;51.40;99715.06;105208;1260;83397;-73
2023/03/23 09:48:53;;;;;;;4.60;1.20;;;;;;;17.79;50.84;99710.64;105445;1256;72709;-74
2023/03/23 09:51:26;;;;;;;3.50;1.20;;;;;;;17.77;50.64;99712.92;105393;1254;69192;-72
2023/03/23 09:53:57;;;;;;;8.50;1.40;;;;;;;17.77;49.78;99711.13;105351;1259;69160;-73
2023/03/23 09:56:27;;;;;;;9.10;1.70;;;;;;;17.89;50.58;99711.65;105441;1255;74275;-73
2023/03/23 09:59:16;;;;;;;4.60;1.30;;;;;;;17.95;50.53;99709.96;105382;1258;83377;-73
2023/03/23 10:01:52;;;;;;;10.20;1.70;;;;;;;17.90;50.54;99717.55;105398;1256;74033;-73
2023/03/23 10:04:32;;;;;;;5.40;1.80;;;;;;;17.77;49.28;99726.88;105259;1257;69271;-72
2023/03/23 10:07:09;;;;;;;4.90;1.10;;;;;;;17.62;50.18;99732.97;105290;1259;69201;-73
2023/03/23 10:09:37;;;;;;;5.90;1.00;;;;;;;17.65;50.57;99732.20;105444;1258;74267;-72
2023/03/23 10:12:21;;;;;;;5.20;1.50;;;;;;;17.66;49.89;99727.54;105400;1258;83367;-74
2023/03/23 10:15:13;;;;;;;5.50;1.30;;;;;;;17.54;49.69;99738.73;105365;1257;73642;-70
2023/03/23 10:17:45;;;;;;;4.90;1.30;;;;;;;17.45;50.13;99728.63;105348;1256;69184;-71
2023/03/23 10:20:21;;;;;;;5.70;2.30;;;;;;;17.39;50.52;99730.66;105413;1258;69194;-72
2023/03/23 10:23:16;;;;;;;9.20;1.40;;;;;;;17.34;50.97;99733.02;105444;1258;74078;-71
2023/03/23 10:25:52;;;;;;;4.10;1.90;;;;;;;17.34;51.04;99732.83;105436;1259;83509;-73
2023/03/23 10:28:38;;;;;;;6.00;1.00;;;;;;;17.32;50.97;99734.73;105542;1256;73718;-73
2023/03/23 10:31:12;;;;;;;6.00;1.10;;;;;;;17.28;50.99;99730.96;105614;1254;69609;-71
2023/03/23 10:33:48;;;;;;;5.30;1.20;;;;;;;17.29;51.03;99727.71;105458;1257;69112;-72
2023/03/23 10:36:36;;;;;;;3.90;1.20;;;;;;;17.39;51.38;99719.39;105532;1254;74090;-73
2023/03/23 10:39:20;;;;;;;4.20;1.30;;;;;;;17.49;51.46;99721.62;105540;1257;82366;-73
2023/03/23 10:41:50;;;;;;;7.80;1.20;;;;;;;17.56;51.43;99725.11;105521;1257;73900;-73
2023/03/23 10:44:21;;;;;;;3.70;1.20;;;;;;;17.56;50.95;99723.67;105549;1256;69124;-71
2023/03/23 10:46:59;;;;;;;6.30;1.20;;;;;;;17.52;50.81;99732.71;105590;1266;69216;-71
2023/03/23 10:49:40;;;;;;;3.50;1.00;;;;;;;17.39;50.28;99728.73;105527;1256;73978;-72
2023/03/23 10:52:37;;;;;;;2.30;1.10;;;;;;;17.30;50.83;99730.98;105534;1254;81869;-72
2023/03/23 10:55:13;;;;;;;4.80;1.40;;;;;;;17.25;50.75;99735.80;105566;1260;72690;-72
2023/03/23 10:58:06;;;;;;;4.70;1.30;;;;;;;17.13;50.32;99734.23;105595;1256;69186;-76
2023/03/23 11:00:53;;;;;;;3.30;1.10;;;;;;;17.00;50.47;99736.40;105516;1258;69194;-71
2023/03/23 11:03:28;;;;;;;3.10;1.00;;;;;;;16.94;50.69;99734.39;105502;1262;74308;-74
2023/03/23 11:05:57;;;;;;;1.80;1.10;;;;;;;16.92;50.94;99736.15;105612;1259;82478;-72
2023/03/23 11:08:34;;;;;;;7.90;1.30;;;;;;;16.90;51.03;99742.63;105591;1254;72696;-72
2023/03/23 11:11:20;;;;;;;3.00;1.10;;;;;;;16.88;51.12;99748.44;105591;1256;69177;-76
2023/03/23 11:13:56;;;;;;;3.10;1.20;;;;;;;16.81;50.80;99753.16;105539;1253;69074;-77
2023/03/23 11:16:32;;;;;;;5.50;1.10;;;;;;;16.72;51.11;99752.18;105558;1258;74172;-74
2023/03/23 11:19:24;;;;;;;3.40;1.40;;;;;;;16.69;51.53;99750.50;105540;1257;83830;-73
2023/03/23 11:21:57;;;;;;;1.40;1.00;;;;;;;16.65;51.65;99760.80;105434;1256;73812;-72
2023/03/23 11:24:29;;;;;;;6.30;1.30;;;;;;;16.60;51.20;99755.92;105457;1252;69098;-73
2023/03/23 11:27:03;;;;;;;4.60;1.10;;;;;;;16.55;51.35;99747.27;105437;1257;69128;-74
2023/03/23 11:29:34;;;;;;;1.80;0.80;;;;;;;16.57;51.71;99746.98;105531;1255;74218;-72
2023/03/23 11:32:14;;;;;;;5.40;1.20;;;;;;;16.62;51.88;99748.16;105524;1256;83517;-73
2023/03/23 11:34:53;;;;;;;3.00;1.10;;;;;;;16.67;51.85;99750.59;105562;1257;73679;-72
2023/03/23 11:37:35;;;;;;;2.60;1.00;;;;;;;16.72;52.05;99747.76;105570;1256;69216;-74
2023/03/23 11:40:16;;;;;;;2.70;1.10;;;;;;;16.79;52.16;99752.98;105561;1257;69121;-73
2023/03/23 11:42:57;;;;;;;2.60;0.90;;;;;;;16.83;52.27;99751.84;105504;1257;72820;-67
2023/03/23 11:45:48;;;;;;;4.00;1.10;;;;;;;16.89;52.49;99756.09;105513;1255;83333;-67
2023/03/23 11:48:24;;;;;;;1.70;0.80;;;;;;;16.95;52.48;99755.16;105519;1256;73653;-68
2023/03/23 11:51:02;;;;;;;3.60;1.00;;;;;;;16.98;52.63;99757.61;105486;1254;69195;-68
2023/03/23 11:53:47;;;;;;;3.80;1.00;;;;;;;17.06;52.91;99759.60;105603;1255;69155;-68
2023/03/23 11:56:27;;;;;;;4.20;1.60;;;;;;;17.22;52.60;99758.78;105301;1255;74063;-68
2023/03/23 11:58:55;;;;;;;;;;;;;;;17.44;52.82;99763.11;105537;1255;83750;-70
2023/03/23 12:01:40;;;;;;;7.70;3.30;;;;;;;17.82;52.80;99760.98;105502;1257;73135;-67
2023/03/23 12:04:23;;;;;;;5.40;2.10;;;;;;;18.06;52.54;99759.45;105510;1256;69139;-71
2023/03/23 12:07:08;;;;;;;4.10;1.30;;;;;;;18.09;52.03;99762.62;105520;1256;69186;-69
2023/03/23 12:09:58;;;;;;;4.00;1.70;;;;;;;17.97;51.78;99768.83;105425;1267;73155;-68
2023/03/23 12:12:41;;;;;;;;;;;;;;;17.81;51.69;99774.12;105629;1256;83200;-68
2023/03/23 12:15:19;;;;;;;2.70;1.20;;;;;;;17.83;52.12;99772.72;105529;1256;73763;-68
2023/03/23 12:17:58;;;;;;;4.70;1.10;;;;;;;17.88;52.60;99771.30;105549;1257;69591;-68
2023/03/23 12:20:29;;;;;;;1.40;0.90;;;;;;;17.80;52.30;99777.22;105616;1255;69202;-67
2023/03/23 12:23:06;;;;;;;1.60;0.90;;;;;;;17.65;52.50;99776.75;105569;1256;73005;-66
2023/03/23 12:25:41;;;;;;;3.80;1.50;;;;;;;17.61;52.87;99774.94;105414;1254;82302;-73
2023/03/23 12:28:27;;;;;;;4.10;2.00;;;;;;;17.61;52.98;99774.91;105509;1260;73917;-74
2023/03/23 12:31:20;;;;;;;2.50;1.20;;;;;;;17.66;53.30;99770.52;105547;1257;69576;-73
2023/03/23 12:34:01;;;;;;;1.60;1.20;;;;;;;17.65;53.15;99768.42;105578;1255;69154;-73
2023/03/23 12:36:54;;;;;;;2.10;1.10;;;;;;;17.58;53.12;99767.55;105595;1258;73997;-74
2023/03/23 12:39:34;;;;;;;2.30;1.10;;;;;;;17.54;52.79;99767.35;105541;1256;83173;-75
2023/03/23 12:42:15;;;;;;;1.30;0.90;;;;;;;17.43;52.89;99767.49;105518;1254;73666;-73
2023/03/23 12:44:46;;;;;;;2.00;1.10;;;;;;;17.37;53.25;99768.39;105526;1256;69225;-72
2023/03/23 12:47:37;;;;;;;3.00;0.70;;;;;;;17.39;53.33;99771.83;105538;1251;69116;-73
2023/03/23 12:50:10;;;;;;;3.50;1.10;;;;;;;17.37;53.41;99764.85;105572;1257;72202;-70
2023/03/23 12:53:11;;;;;;;1.40;0.80;;;;;;;17.39;53.48;99761.77;105616;1257;83349;-73
2023/03/23 12:55:49;;;;;;;3.30;1.00;;;;;;;17.36;53.17;99760.54;105618;1255;72753;-73
2023/03/23 12:58:20;;;;;;;1.80;0.80;;;;;;;17.27;53.20;99753.70;105591;1251;69085;-75
2023/03/23 13:01:21;;;;;;;2.70;0.90;;;;;;;17.24;53.27;99758.01;105599;1257;69081;-72
2023/03/23 13:03:52;;;;;;;1.90;0.80;;;;;;;17.22;53.26;99759.31;105389;1251;74420;-73
2023/03/23 13:06:23;;;;;;;1.90;0.80;;;;;;;17.22;53.12;99757.73;105592;1252;81992;-75
2023/03/23 13:08:53;;;;;;;;;;;;;;;17.21;53.33;99757.82;105540;1255;73654;-71
2023/03/23 13:11:28;;;;;;;2.90;0.90;;;;;;;17.24;53.22;99757.95;105553;1255;69212;-74
2023/03/23 13:14:17;;;;;;;1.80;0.90;;;;;;;17.25;53.34;99754.19;105629;1256;69603;-74
2023/03/23 13:16:53;;;;;;;1.70;0.90;;;;;;;17.26;53.27;99747.92;105521;1256;74515;-75
2023/03/23 13:19:27;;;;;;;2.30;0.70;;;;;;;17.24;53.23;99750.14;105596;1251;82096;-75
2023/03/23 13:22:19;;;;;;;3.20;1.00;;;;;;;17.23;53.42;99745.34;105560;1254;73844;-72
2023/03/23 13:24:52;;;;;;;3.20;0.80;;;;;;;17.22;53.47;99743.98;105545;1254;69775;-72
2023/03/23 13:27:24;;;;;;;2.20;1.20;;;;;;;17.22;53.75;99743.96;105556;1255;69182;-73
2023/03/23 13:29:51;;;;;;;3.00;1.60;;;;;;;17.26;53.78;99748.66;105630;1256;73089;-76
2023/03/23 13:32:19;;;;;;;2.10;1.20;;;;;;;17.30;53.78;99747.80;105560;1257;83279;-70
2023/03/23 13:34:48;;;;;;;2.30;1.30;;;;;;;17.31;53.41;99744.70;107240;1251;72807;-66
2023/03/23 13:37:18;;;;;;;2.30;1.20;;;;;;;17.24;53.08;99741.89;106775;1254;69190;-70
2023/03/23 13:39:56;;;;;;;1.90;1.00;;;;;;;17.18;53.17;99739.13;105615;1266;69643;-71
2023/03/23 13:42:26;;;;;;;1.90;1.00;;;;;;;17.18;53.07;99735.06;105354;1257;74134;-68
2023/03/23 13:44:53;;;;;;;;;;;;;;;17.17;52.84;99742.00;105569;1254;82965;-73
2023/03/23 13:47:23;;;;;;;2.80;1.00;;;;;;;17.13;52.72;99740.70;105540;1257;72718;-78
2023/03/23 13:49:55;;;;;;;;;;;;;;;17.10;52.43;99740.99;105475;1256;69045;-72